Terminal Aerodrome Forecast
Issued by NWS

Home | Current Version | Previous Version | Text Only | Print | Product List | Glossary On
Versions: 1 2 3 4 5 6 7 8 9 10 11 12 13 14 15 16 17 18 19 20 21 22
000
FTUS43 KGRR 220800 AAA
TAFAZO
TAF AMD
KAZO 220812Z 2208/2306 35008KT P6SM BKN035
      TEMPO 2208/2212 BKN025
     FM221400 34005KT P6SM SCT025=

USA.gov is the U.S. government's official web portal to all federal, state and local government web resources and services.